createdAt,value
2022-12-09T00:01:42.572Z,2.80
2022-12-09T00:04:12.846Z,2.80
2022-12-09T00:06:43.296Z,2.70
2022-12-09T00:09:18.287Z,2.50
2022-12-09T00:11:48.598Z,2.60
2022-12-09T00:14:18.870Z,2.70
2022-12-09T00:16:51.660Z,2.70
2022-12-09T00:19:22.274Z,2.70
2022-12-09T00:21:52.438Z,2.70
2022-12-09T00:24:23.992Z,2.70
2022-12-09T00:26:55.524Z,2.70
2022-12-09T00:29:28.155Z,2.80
2022-12-09T00:32:00.980Z,2.90
2022-12-09T00:34:31.273Z,2.90
2022-12-09T00:37:01.378Z,2.90
2022-12-09T00:39:31.559Z,3.00
2022-12-09T00:42:01.615Z,2.90
2022-12-09T00:44:32.457Z,2.90
2022-12-09T00:47:05.285Z,2.90
2022-12-09T00:49:35.811Z,2.80
2022-12-09T00:52:06.003Z,2.80
2022-12-09T00:54:36.402Z,2.90
2022-12-09T00:57:07.315Z,2.90
2022-12-09T00:59:37.481Z,2.90
2022-12-09T01:02:10.297Z,3.00
2022-12-09T01:04:41.835Z,3.00
2022-12-09T01:07:13.880Z,2.90
2022-12-09T01:09:44.526Z,2.90
2022-12-09T01:12:14.651Z,3.00
2022-12-09T01:14:44.736Z,2.90
2022-12-09T01:17:17.504Z,2.90
2022-12-09T01:19:48.255Z,2.80
2022-12-09T01:22:18.502Z,2.80
2022-12-09T01:24:48.575Z,2.80
2022-12-09T01:27:19.069Z,2.80
2022-12-09T01:29:49.151Z,2.80
2022-12-09T01:32:23.420Z,2.90
2022-12-09T01:34:53.700Z,2.90
2022-12-09T01:37:23.839Z,2.80
2022-12-09T01:39:53.927Z,2.70
2022-12-09T01:42:27.333Z,2.70
2022-12-09T01:45:45.886Z,2.70
2022-12-09T01:48:22.575Z,2.70
2022-12-09T01:50:58.951Z,2.60
2022-12-09T01:53:34.669Z,2.60
2022-12-09T01:56:12.020Z,2.70
2022-12-09T01:58:42.513Z,2.70
2022-12-09T02:01:16.686Z,2.70
2022-12-09T02:03:49.834Z,2.70
2022-12-09T02:06:21.112Z,2.70
2022-12-09T02:08:53.467Z,2.60
2022-12-09T02:11:38.899Z,2.70
2022-12-09T02:14:19.187Z,2.80
2022-12-09T02:17:08.833Z,2.70
2022-12-09T02:20:02.130Z,2.70
2022-12-09T02:22:40.995Z,2.70
2022-12-09T02:25:32.700Z,2.70
2022-12-09T02:28:44.189Z,2.80
2022-12-09T02:31:34.986Z,2.80
2022-12-09T02:34:17.555Z,2.70
2022-12-09T02:37:13.957Z,2.60
2022-12-09T02:39:56.665Z,2.70
2022-12-09T02:42:32.461Z,2.90
2022-12-09T02:45:07.583Z,2.90
2022-12-09T02:47:43.476Z,2.80
2022-12-09T02:50:23.970Z,2.90
2022-12-09T02:52:57.020Z,3.00
2022-12-09T02:55:28.548Z,3.00
2022-12-09T02:58:04.518Z,3.00
2022-12-09T03:00:35.026Z,3.10
2022-12-09T03:03:12.574Z,3.00
2022-12-09T03:05:55.747Z,2.90
2022-12-09T03:08:39.684Z,2.80
2022-12-09T03:11:13.709Z,2.70
2022-12-09T03:13:56.723Z,2.60
2022-12-09T03:16:36.116Z,2.60
2022-12-09T03:19:14.292Z,2.50
2022-12-09T03:21:50.966Z,2.60
2022-12-09T03:24:29.032Z,2.70
2022-12-09T03:27:03.522Z,2.70
2022-12-09T03:29:38.277Z,2.60
2022-12-09T03:32:09.067Z,2.50
2022-12-09T03:34:44.991Z,2.60
2022-12-09T03:37:21.872Z,2.60
2022-12-09T03:39:54.000Z,2.60
2022-12-09T03:42:31.265Z,2.60
2022-12-09T03:45:06.078Z,2.50
2022-12-09T03:47:36.616Z,2.50
2022-12-09T03:50:09.439Z,2.50
2022-12-09T03:52:51.192Z,2.50
2022-12-09T03:55:32.187Z,2.50
2022-12-09T03:58:07.863Z,2.50
2022-12-09T04:00:41.636Z,2.50
2022-12-09T04:03:12.037Z,2.50
2022-12-09T04:05:44.555Z,2.60
2022-12-09T04:08:17.536Z,2.50
2022-12-09T04:10:47.809Z,2.50
2022-12-09T04:13:18.613Z,2.50
2022-12-09T04:15:48.978Z,2.50
2022-12-09T04:18:19.192Z,2.50
2022-12-09T04:20:49.614Z,2.50
2022-12-09T04:23:22.323Z,2.40
2022-12-09T04:25:52.447Z,2.40
2022-12-09T04:28:22.586Z,2.40
2022-12-09T04:30:52.892Z,2.30
2022-12-09T04:33:23.014Z,2.30
2022-12-09T04:35:53.053Z,2.60
2022-12-09T04:38:25.964Z,2.90
2022-12-09T04:40:56.201Z,3.00
2022-12-09T04:43:26.372Z,2.80
2022-12-09T04:45:56.938Z,2.70
2022-12-09T04:48:27.299Z,2.50
2022-12-09T04:50:58.392Z,2.40
2022-12-09T04:53:34.313Z,2.40
2022-12-09T04:56:07.237Z,2.40
2022-12-09T04:58:37.789Z,2.40
2022-12-09T05:01:16.344Z,2.30
2022-12-09T05:03:51.846Z,2.30
2022-12-09T05:06:26.251Z,2.30
2022-12-09T05:08:59.633Z,2.20
2022-12-09T05:11:29.898Z,2.20
2022-12-09T05:14:00.714Z,2.20
2022-12-09T05:16:31.089Z,2.20
2022-12-09T05:19:03.441Z,2.20
2022-12-09T05:21:34.134Z,2.20
2022-12-09T05:24:09.985Z,2.20
2022-12-09T05:26:41.156Z,2.20
2022-12-09T05:29:11.680Z,2.10
2022-12-09T05:31:42.575Z,2.10
2022-12-09T05:34:13.088Z,2.10
2022-12-09T05:36:43.337Z,2.00
2022-12-09T05:39:18.304Z,2.00
2022-12-09T05:41:49.576Z,2.00
2022-12-09T05:44:20.438Z,1.90
2022-12-09T05:46:50.693Z,1.80
2022-12-09T05:49:21.209Z,1.70
2022-12-09T05:51:51.505Z,1.70
2022-12-09T05:54:24.561Z,1.70
2022-12-09T05:56:57.403Z,1.70
2022-12-09T05:59:28.177Z,1.60
2022-12-09T06:01:58.573Z,1.60
2022-12-09T06:04:28.745Z,1.70
2022-12-09T06:06:59.457Z,1.70
2022-12-09T06:09:33.016Z,1.80
2022-12-09T06:12:03.610Z,1.90
2022-12-09T06:14:34.259Z,1.90
2022-12-09T06:17:04.598Z,1.90
2022-12-09T06:19:35.080Z,1.70
2022-12-09T06:22:06.002Z,1.50
2022-12-09T06:24:38.943Z,1.40
2022-12-09T06:27:09.270Z,1.30
2022-12-09T06:29:39.718Z,1.20
2022-12-09T06:32:11.086Z,1.10
2022-12-09T06:34:42.343Z,1.10
2022-12-09T06:37:12.734Z,1.00
2022-12-09T06:39:45.612Z,1.00
2022-12-09T06:42:18.588Z,1.00
2022-12-09T06:44:48.934Z,1.10
2022-12-09T06:47:19.248Z,1.20
2022-12-09T06:50:05.892Z,1.30
2022-12-09T06:52:37.640Z,1.20
2022-12-09T06:55:14.366Z,1.20
2022-12-09T06:57:45.130Z,1.00
2022-12-09T07:00:17.902Z,1.00
2022-12-09T07:02:48.624Z,1.00
2022-12-09T07:05:19.577Z,1.00
2022-12-09T07:07:54.059Z,1.00
2022-12-09T07:10:27.970Z,0.90
2022-12-09T07:12:58.697Z,1.00
2022-12-09T07:15:31.593Z,1.00
2022-12-09T07:18:02.795Z,1.10
2022-12-09T07:20:33.315Z,1.00
2022-12-09T07:23:06.025Z,0.90
2022-12-09T07:25:39.011Z,0.90
2022-12-09T07:28:11.592Z,1.00
2022-12-09T07:30:42.045Z,1.00
2022-12-09T07:33:12.454Z,1.10
2022-12-09T07:35:43.193Z,1.20
2022-12-09T07:38:14.063Z,1.10
2022-12-09T07:40:46.905Z,1.20
2022-12-09T07:43:17.435Z,1.10
2022-12-09T07:45:49.459Z,1.10
2022-12-09T07:48:30.589Z,1.20
2022-12-09T07:51:03.478Z,1.30
2022-12-09T07:53:34.716Z,1.30
2022-12-09T07:56:14.818Z,1.40
2022-12-09T07:58:47.756Z,1.50
2022-12-09T08:01:21.760Z,1.50
2022-12-09T08:03:54.478Z,1.60
2022-12-09T08:06:28.507Z,1.70
2022-12-09T08:09:02.132Z,1.70
2022-12-09T08:11:36.775Z,1.90
2022-12-09T08:14:13.314Z,2.10
2022-12-09T08:16:44.758Z,2.40
2022-12-09T08:19:16.311Z,2.60
2022-12-09T08:21:52.818Z,2.60
2022-12-09T08:24:26.875Z,2.80
2022-12-09T08:27:00.473Z,3.10
2022-12-09T08:29:31.379Z,3.30
2022-12-09T08:32:01.637Z,3.50
2022-12-09T08:34:32.483Z,3.30
2022-12-09T08:37:03.184Z,3.30
2022-12-09T08:39:34.996Z,3.20
2022-12-09T08:42:08.577Z,3.00
2022-12-09T08:44:41.028Z,2.90
2022-12-09T08:47:11.652Z,2.80
2022-12-09T08:49:42.107Z,2.80
2022-12-09T08:52:12.271Z,2.70
2022-12-09T08:54:42.506Z,2.80
2022-12-09T08:57:15.515Z,2.90
2022-12-09T08:59:46.079Z,2.90
2022-12-09T09:02:24.647Z,2.90
2022-12-09T09:04:55.004Z,2.90
2022-12-09T09:07:25.781Z,2.90
2022-12-09T09:09:56.649Z,3.10
2022-12-09T09:12:29.866Z,3.20
2022-12-09T09:15:01.362Z,3.10
2022-12-09T09:17:31.747Z,2.80
2022-12-09T09:20:02.409Z,2.70
2022-12-09T09:22:32.775Z,2.70
2022-12-09T09:25:03.913Z,2.90
2022-12-09T09:27:37.948Z,3.00
2022-12-09T09:30:12.403Z,3.10
2022-12-09T09:32:43.268Z,3.10
2022-12-09T09:35:14.104Z,3.00
2022-12-09T09:37:44.741Z,3.10
2022-12-09T09:40:16.711Z,3.60
2022-12-09T09:42:53.660Z,3.80
2022-12-09T09:45:27.485Z,3.90
2022-12-09T09:48:04.776Z,3.80
2022-12-09T09:50:44.763Z,3.90
2022-12-09T09:53:24.071Z,4.00
2022-12-09T09:56:01.472Z,3.70
2022-12-09T09:58:44.437Z,3.50
2022-12-09T10:01:18.974Z,3.30
2022-12-09T10:04:01.498Z,3.70
2022-12-09T10:06:45.931Z,3.60
2022-12-09T10:09:30.281Z,3.40
2022-12-09T10:12:06.574Z,3.40
2022-12-09T10:14:55.509Z,3.60
2022-12-09T10:17:32.516Z,4.10
2022-12-09T10:20:12.423Z,4.40
2022-12-09T10:22:49.730Z,4.10
2022-12-09T10:25:28.376Z,4.00
2022-12-09T10:28:20.882Z,4.00
2022-12-09T10:30:56.612Z,4.20
2022-12-09T10:33:32.801Z,4.40
2022-12-09T10:36:03.575Z,4.60
2022-12-09T10:38:39.049Z,4.90
2022-12-09T10:41:46.252Z,5.00
2022-12-09T10:44:23.908Z,5.20
2022-12-09T10:47:06.337Z,5.40
2022-12-09T10:49:38.660Z,5.30
2022-12-09T10:52:09.308Z,5.20
2022-12-09T10:54:44.924Z,5.10
2022-12-09T10:57:29.786Z,5.20
2022-12-09T11:00:06.142Z,5.40
2022-12-09T11:02:39.717Z,5.40
2022-12-09T11:05:30.145Z,5.60
2022-12-09T11:08:02.108Z,5.50
2022-12-09T11:10:34.336Z,5.60
2022-12-09T11:13:11.743Z,5.90
2022-12-09T11:15:47.260Z,5.90
2022-12-09T11:18:28.482Z,5.70
2022-12-09T11:21:02.071Z,5.50
2022-12-09T11:23:33.621Z,5.40
2022-12-09T11:26:07.727Z,5.40
2022-12-09T11:28:40.541Z,5.60
2022-12-09T11:31:30.570Z,5.60
2022-12-09T11:34:16.423Z,5.50
2022-12-09T11:36:53.332Z,5.50
2022-12-09T11:39:30.495Z,5.50
2022-12-09T11:42:18.790Z,5.20
2022-12-09T11:45:00.124Z,4.90
2022-12-09T11:48:12.871Z,4.70
2022-12-09T11:50:34.654Z,4.50
2022-12-09T11:53:29.679Z,4.50
2022-12-09T11:56:09.428Z,4.60
2022-12-09T11:58:48.641Z,4.70
2022-12-09T12:01:27.470Z,4.60
2022-12-09T12:04:04.241Z,4.80
2022-12-09T12:06:47.123Z,5.50
2022-12-09T12:09:27.425Z,5.60
2022-12-09T12:12:08.462Z,5.60
2022-12-09T12:14:47.172Z,5.20
2022-12-09T12:17:27.406Z,5.10
2022-12-09T12:19:59.062Z,5.00
2022-12-09T12:22:58.624Z,4.80
2022-12-09T12:25:49.449Z,4.60
2022-12-09T12:29:03.942Z,4.50
2022-12-09T12:32:22.850Z,4.40
2022-12-09T12:35:16.532Z,4.40
2022-12-09T12:38:06.912Z,4.40
2022-12-09T12:40:51.650Z,4.20
2022-12-09T12:43:56.541Z,4.30
2022-12-09T12:46:47.210Z,4.30
2022-12-09T12:50:02.152Z,4.40
2022-12-09T12:52:55.981Z,4.40
2022-12-09T12:55:50.358Z,4.40
2022-12-09T12:58:38.068Z,4.40
2022-12-09T13:01:19.705Z,4.40
2022-12-09T13:04:03.875Z,4.50
2022-12-09T13:06:46.641Z,4.50
2022-12-09T13:09:24.862Z,4.50
2022-12-09T13:12:08.964Z,4.30
2022-12-09T13:14:53.166Z,4.30
2022-12-09T13:17:30.060Z,4.40
2022-12-09T13:20:05.134Z,4.30
2022-12-09T13:22:49.346Z,4.10
2022-12-09T13:25:30.810Z,3.90
2022-12-09T13:28:13.890Z,3.90
2022-12-09T13:30:55.553Z,3.90
2022-12-09T13:33:43.816Z,3.70
2022-12-09T13:36:23.905Z,3.60
2022-12-09T13:38:54.064Z,3.50
2022-12-09T13:41:57.878Z,3.40
2022-12-09T13:44:40.269Z,3.50
2022-12-09T13:47:36.181Z,3.80
2022-12-09T13:50:27.429Z,3.80
2022-12-09T13:53:02.500Z,3.80
2022-12-09T13:55:51.953Z,3.80
2022-12-09T13:59:17.142Z,3.80
2022-12-09T14:01:55.504Z,3.90
2022-12-09T14:04:33.089Z,3.80
2022-12-09T14:07:17.424Z,3.80
2022-12-09T14:09:56.410Z,3.80
2022-12-09T14:13:21.787Z,3.90
2022-12-09T14:16:18.539Z,3.80
2022-12-09T14:18:53.657Z,3.80
2022-12-09T14:21:33.634Z,3.70
2022-12-09T14:24:35.451Z,3.60
2022-12-09T14:27:21.343Z,3.40
2022-12-09T14:29:58.079Z,3.40
2022-12-09T14:32:35.029Z,3.50
2022-12-09T14:35:31.924Z,3.40
2022-12-09T14:38:20.512Z,3.40
2022-12-09T14:41:03.703Z,3.40
2022-12-09T14:44:00.916Z,3.40
2022-12-09T14:46:35.639Z,3.50
2022-12-09T14:49:16.160Z,3.50
2022-12-09T14:51:53.240Z,3.40
2022-12-09T14:54:32.865Z,3.40
2022-12-09T14:57:16.006Z,3.30
2022-12-09T14:59:52.978Z,3.30
2022-12-09T15:02:29.810Z,3.40
2022-12-09T15:05:02.715Z,3.40
2022-12-09T15:07:37.445Z,3.30
2022-12-09T15:10:20.718Z,3.30
2022-12-09T15:12:54.746Z,3.20
2022-12-09T15:15:29.417Z,3.10
2022-12-09T15:18:03.799Z,3.10
2022-12-09T15:20:37.996Z,3.10
2022-12-09T15:23:22.805Z,3.10
2022-12-09T15:25:56.830Z,3.20
2022-12-09T15:28:29.495Z,3.10
2022-12-09T15:31:02.967Z,3.10
2022-12-09T15:33:42.121Z,3.10
2022-12-09T15:36:17.611Z,3.10
2022-12-09T15:38:55.942Z,3.10
2022-12-09T15:41:41.825Z,3.00
2022-12-09T15:44:19.258Z,3.00
2022-12-09T15:46:54.740Z,3.00
2022-12-09T15:49:30.536Z,2.90
2022-12-09T15:52:03.829Z,2.90
2022-12-09T15:54:43.175Z,3.00
2022-12-09T15:57:18.402Z,2.90
2022-12-09T15:59:56.042Z,2.90
2022-12-09T16:02:32.221Z,2.80
2022-12-09T16:05:08.296Z,2.80
2022-12-09T16:07:39.448Z,2.80
2022-12-09T16:10:17.194Z,2.80
2022-12-09T16:12:47.602Z,2.70
2022-12-09T16:15:47.717Z,2.70
2022-12-09T16:18:23.588Z,2.70
2022-12-09T16:21:23.821Z,2.70
2022-12-09T16:23:58.603Z,2.90
2022-12-09T16:26:39.729Z,3.00
2022-12-09T16:29:22.882Z,3.00
2022-12-09T16:32:24.937Z,3.00
2022-12-09T16:34:57.871Z,3.00
2022-12-09T16:37:38.476Z,3.10
2022-12-09T16:41:10.587Z,3.10
2022-12-09T16:43:58.920Z,3.10
2022-12-09T16:46:42.678Z,3.10
2022-12-09T16:49:12.965Z,3.00
2022-12-09T16:51:44.014Z,2.90
2022-12-09T16:54:21.074Z,2.90
2022-12-09T16:56:52.256Z,2.80
2022-12-09T16:59:28.973Z,2.80
2022-12-09T17:02:04.910Z,2.80
2022-12-09T17:04:35.062Z,2.80
2022-12-09T17:07:05.142Z,2.80
2022-12-09T17:09:35.351Z,3.00
2022-12-09T17:12:05.484Z,3.00
2022-12-09T17:14:38.253Z,2.90
2022-12-09T17:17:08.371Z,2.90
2022-12-09T17:19:38.517Z,2.80
2022-12-09T17:22:08.623Z,2.80
2022-12-09T17:24:39.050Z,2.80
2022-12-09T17:27:09.118Z,2.80
2022-12-09T17:29:41.977Z,2.80
2022-12-09T17:32:12.142Z,2.80
2022-12-09T17:34:42.695Z,2.70
2022-12-09T17:37:13.246Z,2.60
2022-12-09T17:39:43.357Z,2.60
2022-12-09T17:42:13.432Z,2.50
2022-12-09T17:44:46.304Z,2.50
2022-12-09T17:47:16.426Z,2.40
2022-12-09T17:49:46.592Z,2.40
2022-12-09T17:52:16.846Z,2.30
2022-12-09T17:54:47.164Z,2.20
2022-12-09T17:57:17.291Z,2.20
2022-12-09T17:59:50.055Z,2.10
2022-12-09T18:02:20.185Z,2.00
2022-12-09T18:04:50.315Z,2.00
2022-12-09T18:07:20.549Z,2.00
2022-12-09T18:09:54.533Z,1.90
2022-12-09T18:12:24.893Z,1.90
2022-12-09T18:14:57.597Z,1.90
2022-12-09T18:17:27.714Z,1.80
2022-12-09T18:19:57.816Z,1.80
2022-12-09T18:22:35.910Z,1.80
2022-12-09T18:25:06.175Z,1.90
2022-12-09T18:27:36.407Z,1.90
2022-12-09T18:30:11.587Z,1.90
2022-12-09T18:32:41.883Z,1.90
2022-12-09T18:35:13.778Z,1.90
2022-12-09T18:37:43.861Z,1.90
2022-12-09T18:40:21.210Z,1.90
2022-12-09T18:42:51.564Z,1.80
2022-12-09T18:45:26.698Z,1.70
2022-12-09T18:47:56.843Z,1.70
2022-12-09T18:50:26.958Z,1.70
2022-12-09T18:53:10.506Z,1.70
2022-12-09T18:55:44.850Z,1.80
2022-12-09T18:58:36.554Z,1.80
2022-12-09T19:01:24.735Z,1.80
2022-12-09T19:03:58.857Z,1.80
2022-12-09T19:06:32.188Z,1.80
2022-12-09T19:09:05.003Z,1.80
2022-12-09T19:11:37.100Z,1.90
2022-12-09T19:14:09.505Z,1.90
2022-12-09T19:16:43.129Z,2.10
2022-12-09T19:19:18.413Z,2.00
2022-12-09T19:21:53.400Z,2.10
2022-12-09T19:24:28.354Z,2.10
2022-12-09T19:27:00.266Z,2.10
2022-12-09T19:29:31.045Z,2.00
2022-12-09T19:32:04.330Z,2.00
2022-12-09T19:34:35.753Z,1.90
2022-12-09T19:37:44.108Z,1.80
2022-12-09T19:40:15.178Z,1.70
2022-12-09T19:42:54.039Z,1.90
2022-12-09T19:45:24.810Z,1.90
2022-12-09T19:47:58.700Z,1.80
2022-12-09T19:50:28.742Z,1.70
2022-12-09T19:52:58.900Z,1.80
2022-12-09T19:55:29.044Z,1.70
2022-12-09T19:58:01.980Z,1.70
2022-12-09T20:00:35.602Z,1.70
2022-12-09T20:03:11.000Z,1.70
2022-12-09T20:05:50.090Z,1.60
2022-12-09T20:08:20.481Z,1.60
2022-12-09T20:10:52.406Z,1.50
2022-12-09T20:13:26.081Z,1.50
2022-12-09T20:15:58.831Z,1.60
2022-12-09T20:18:31.516Z,1.60
2022-12-09T20:21:04.644Z,1.70
2022-12-09T20:23:35.034Z,1.60
2022-12-09T20:26:09.388Z,1.50
2022-12-09T20:28:41.198Z,1.50
2022-12-09T20:31:14.429Z,1.60
2022-12-09T20:33:47.299Z,1.60
2022-12-09T20:36:21.538Z,1.40
2022-12-09T20:38:54.075Z,1.50
2022-12-09T20:41:26.069Z,1.50
2022-12-09T20:43:59.595Z,1.50
2022-12-09T20:46:32.401Z,1.50
2022-12-09T20:49:05.170Z,1.50
2022-12-09T20:51:38.075Z,1.50
2022-12-09T20:54:09.886Z,1.30
2022-12-09T20:56:40.573Z,1.20
2022-12-09T20:59:13.671Z,1.30
2022-12-09T21:01:47.262Z,1.30
2022-12-09T21:04:20.310Z,1.30
2022-12-09T21:06:50.459Z,1.20
2022-12-09T21:09:27.093Z,1.10
2022-12-09T21:11:58.486Z,1.00
2022-12-09T21:14:33.796Z,0.90
2022-12-09T21:17:04.358Z,0.90
2022-12-09T21:19:37.026Z,0.90
2022-12-09T21:22:07.372Z,0.90
2022-12-09T21:24:37.459Z,1.10
2022-12-09T21:27:07.903Z,1.10
2022-12-09T21:29:37.984Z,1.20
2022-12-09T21:32:08.404Z,1.30
2022-12-09T21:34:41.183Z,1.60
2022-12-09T21:37:11.308Z,1.70
2022-12-09T21:39:41.366Z,1.60
2022-12-09T21:42:11.546Z,1.80
2022-12-09T21:44:42.299Z,1.70
2022-12-09T21:47:12.456Z,1.70
2022-12-09T21:49:45.127Z,1.70
2022-12-09T21:52:15.382Z,1.60
2022-12-09T21:54:45.482Z,1.60
2022-12-09T21:57:15.700Z,1.50
2022-12-09T21:59:45.782Z,1.40
2022-12-09T22:02:15.936Z,1.40
2022-12-09T22:04:48.764Z,1.30
2022-12-09T22:07:18.844Z,1.30
2022-12-09T22:09:49.174Z,1.30
2022-12-09T22:12:19.259Z,1.30
2022-12-09T22:14:49.409Z,1.40
2022-12-09T22:17:19.522Z,1.50
2022-12-09T22:20:13.647Z,1.60
2022-12-09T22:22:43.206Z,1.60
2022-12-09T22:25:14.061Z,1.60
2022-12-09T22:27:44.156Z,1.50
2022-12-09T22:30:16.194Z,1.50
2022-12-09T22:32:50.557Z,1.60
2022-12-09T22:35:23.786Z,1.60
2022-12-09T22:37:53.872Z,1.70
2022-12-09T22:40:23.981Z,1.50
2022-12-09T22:42:54.139Z,1.40
2022-12-09T22:45:24.279Z,1.40
2022-12-09T22:47:57.335Z,1.30
2022-12-09T22:50:30.438Z,1.30
2022-12-09T22:53:00.585Z,1.30
2022-12-09T22:55:30.785Z,1.20
2022-12-09T22:58:00.862Z,1.10
2022-12-09T23:00:31.430Z,1.10
2022-12-09T23:03:01.537Z,1.10
2022-12-09T23:05:35.001Z,1.20
2022-12-09T23:08:05.297Z,1.10
2022-12-09T23:10:35.974Z,1.20
2022-12-09T23:13:06.122Z,1.10
2022-12-09T23:15:36.584Z,1.10
2022-12-09T23:18:07.091Z,1.20
2022-12-09T23:20:39.799Z,1.20
2022-12-09T23:23:09.880Z,1.10
2022-12-09T23:25:40.044Z,1.00
2022-12-09T23:28:12.369Z,0.90
2022-12-09T23:30:42.541Z,0.90
2022-12-09T23:33:12.642Z,0.80
2022-12-09T23:35:45.376Z,0.80
2022-12-09T23:38:15.422Z,0.80
2022-12-09T23:40:53.894Z,0.70
2022-12-09T23:43:24.050Z,0.70
2022-12-09T23:45:54.149Z,0.70
2022-12-09T23:48:27.223Z,0.70
2022-12-09T23:51:00.475Z,0.70
2022-12-09T23:53:31.154Z,0.60
2022-12-09T23:56:01.267Z,0.70
2022-12-09T23:58:33.476Z,0.70
